Portada
METAR-TAF:

METAR-TAF

Aeroports :

Nova Orleans, Louisiana, Estats Units d'Amèrica

latitud: 29-59-34N, longitud: 090-15-03W, altitud: 1 m

Observació

L'informe es va fer fa 1 hora i 0 minuts, a les 06:53 UTC
Vent 7 kt del Est/Nord-Est
Temperatura 5°C
Humitat 45%
Pressió 1029 hPa
Visibilitat: 16.1 km
Cel clar

METAR: KMSY 220653Z 07007KT 10SM CLR 05/M06 A3038 RMK AO2 SLP289 T00501061

Hora: 01:53 (07:53 UTC)

Pronòstic

L'informe es va fer fa 2 hores i 28 minuts, a les 05:25 UTC
Pronòstic vàlid del 22 a les 06 UTC al 23 a les 12 UTC
Vent 10 kt del Est/Nord-Est
Visibilitat: 10 km
Cel clar
A partir de les 22 a les 1600 UTC
Vent 9 kt del Est
Visibilitat: 10 km
Cel cobert a una alçada de 25000 ft
A partir de les 23 a les 0100 UTC
Vent 7 kt del Est/Sud-Est
Visibilitat: 10 km
Cel cobert a una alçada de 7000 ft
xàfecs en les proximitats

TAF: KMSY 220525Z 2206/2312 06010KT P6SM SKC FM221600 09009KT P6SM OVC250 FM230100 11007KT P6SM VCSH OVC070

Observacions i pronòstics meteorològics de més de 4000 aeroports (METAR i TAF).

Les estacions disponibles són els punts grocs i vermells al mapa.

Posi el ratolí al punt desitjat per veure el nom de l'estació.

Feu clic per veure les observacions i els pronòstics meteorològics.

Per canviar el mapa: feu clic els botons verds amb una creu de color negre per apropar; al botó verd amb un guió per allunyar la imatge; o en les fletxes verdes per a mapes adjacents.


METAR-TAF: